Time,TemperatureF,DewpointF,PressureIn,WindDirection,WindDirectionDegrees,WindSpeedMPH,WindSpeedGustMPH,Humidity,HourlyPrecipIn,Conditions,Clouds,dailyrainin,SolarRadiationWatts/m^2,SoftwareType,DateUTC
2013-09-28 00:02:00,53.2,50.6,29.93,East,84,4.0,4.0,91,0.00,CLR,,0.00,0.0,WeatherDisplay:10.37,2013-09-27 23:02:00,
2013-09-28 00:07:00,53.3,50.7,29.93,East,84,3.5,3.5,91,0.00,CLR,,0.00,0.0,WeatherDisplay:10.37,2013-09-27 23:07:00,
2013-09-28 00:12:00,53.4,50.8,29.93,East,84,2.3,2.3,91,0.00,CLR,,0.00,0.0,WeatherDisplay:10.37,2013-09-27 23:12:00,
2013-09-28 00:17:00,53.5,50.9,29.93,East,85,3.0,3.0,91,0.00,CLR,,0.00,0.0,WeatherDisplay:10.37,2013-09-27 23:17:00,
2013-09-28 00:22:00,53.5,50.9,29.93,East,85,2.3,2.3,91,0.00,CLR,,0.00,0.0,WeatherDisplay:10.37,2013-09-27 23:22:00,
2013-09-28 00:27:00,53.5,50.9,29.92,East,84,5.8,5.8,91,0.00,CLR,,0.00,0.0,WeatherDisplay:10.37,2013-09-27 23:27:00,
2013-09-28 00:32:00,53.5,50.9,29.92,East,83,4.6,4.6,91,0.00,CLR,,0.00,0.0,WeatherDisplay:10.37,2013-09-27 23:32:00,
2013-09-28 00:37:00,53.5,50.9,29.92,East,84,3.5,3.5,91,0.00,CLR,,0.00,0.0,WeatherDisplay:10.37,2013-09-27 23:37:00,
2013-09-28 00:42:00,53.5,50.9,29.92,East,84,3.5,3.5,91,0.00,CLR,,0.00,0.0,WeatherDisplay:10.37,2013-09-27 23:42:00,
2013-09-28 00:47:00,53.4,50.8,29.92,East,86,3.5,3.5,91,0.00,CLR,,0.00,0.0,WeatherDisplay:10.37,2013-09-27 23:47:00,
2013-09-28 00:52:00,53.4,51.1,29.91,East,86,3.5,3.5,92,0.00,CLR,,0.00,0.0,WeatherDisplay:10.37,2013-09-27 23:52:00,
2013-09-28 00:57:00,53.3,50.7,29.91,East,86,3.5,3.5,91,0.00,CLR,,0.00,0.0,WeatherDisplay:10.37,2013-09-27 23:57:00,
2013-09-28 01:02:00,53.2,50.6,29.91,East,83,3.5,3.5,91,0.00,CLR,,0.00,0.0,WeatherDisplay:10.37,2013-09-28 00:02:00,
2013-09-28 01:07:00,53.1,50.8,29.91,East,83,2.3,2.3,92,0.00,CLR,,0.00,0.0,WeatherDisplay:10.37,2013-09-28 00:07:00,
2013-09-28 01:12:00,53.1,50.8,29.91,East,83,2.0,0.0,92,0.00,CLR,,0.00,0.0,WeatherDisplay:10.37,2013-09-28 00:12:00,
2013-09-28 01:17:00,53.0,50.7,29.91,East,79,3.5,3.5,92,0.00,CLR,,0.00,0.0,WeatherDisplay:10.37,2013-09-28 00:17:00,
2013-09-28 01:22:00,53.0,50.7,29.90,East,79,3.5,3.5,92,0.00,CLR,,0.00,0.0,WeatherDisplay:10.37,2013-09-28 00:22:00,
2013-09-28 01:26:00,52.9,50.6,29.90,East,79,0.0,0.0,92,0.00,CLR,,0.00,0.0,WeatherDisplay:10.37,2013-09-28 00:26:00,
2013-09-28 01:32:00,52.8,50.5,29.90,East,79,3.5,3.5,92,0.00,CLR,,0.00,0.0,WeatherDisplay:10.37,2013-09-28 00:32:00,
2013-09-28 01:36:00,52.8,50.5,29.90,ENE,78,4.6,4.6,92,0.00,CLR,,0.00,0.0,WeatherDisplay:10.37,2013-09-28 00:36:00,
2013-09-28 01:41:00,52.8,50.5,29.89,ENE,78,4.0,4.0,92,0.00,CLR,,0.00,0.0,WeatherDisplay:10.37,2013-09-28 00:41:00,
2013-09-28 01:46:00,52.7,50.4,29.89,ENE,78,3.5,3.5,92,0.00,CLR,,0.00,0.0,WeatherDisplay:10.37,2013-09-28 00:46:00,
2013-09-28 01:51:00,52.6,50.3,29.89,ENE,78,3.5,3.5,92,0.00,CLR,,0.00,0.0,WeatherDisplay:10.37,2013-09-28 00:51:00,
2013-09-28 01:56:00,52.6,50.6,29.89,ENE,78,3.5,3.5,93,0.00,CLR,,0.00,0.0,WeatherDisplay:10.37,2013-09-28 00:56:00,
2013-09-28 02:01:00,52.6,50.6,29.88,ENE,78,5.8,5.8,93,0.00,CLR,,0.00,0.0,WeatherDisplay:10.37,2013-09-28 01:01:00,
2013-09-28 02:06:00,52.6,50.6,29.88,ENE,78,3.5,3.5,93,0.00,CLR,,0.00,0.0,WeatherDisplay:10.37,2013-09-28 01:06:00,
2013-09-28 02:11:00,52.6,50.6,29.88,ENE,78,5.0,5.0,93,0.00,CLR,,0.00,0.0,WeatherDisplay:10.37,2013-09-28 01:11:00,
2013-09-28 02:17:00,52.6,50.6,29.88,ENE,78,4.6,4.6,93,0.00,CLR,,0.00,0.0,WeatherDisplay:10.37,2013-09-28 01:17:00,
2013-09-28 02:22:00,52.6,50.6,29.88,ENE,78,3.5,3.5,93,0.00,CLR,,0.00,0.0,WeatherDisplay:10.37,2013-09-28 01:22:00,
2013-09-28 02:27:00,52.6,50.6,29.87,ENE,78,2.3,2.3,93,0.00,CLR,,0.00,0.0,WeatherDisplay:10.37,2013-09-28 01:27:00,
2013-09-28 02:32:00,52.6,50.6,29.87,ENE,78,0.0,0.4,93,0.00,CLR,,0.00,0.0,WeatherDisplay:10.37,2013-09-28 01:32:00,
2013-09-28 02:37:00,52.6,50.6,29.87,ENE,78,1.2,0.0,93,0.00,CLR,,0.00,0.0,WeatherDisplay:10.37,2013-09-28 01:37:00,
2013-09-28 02:42:00,52.6,50.6,29.87,ENE,78,1.2,1.2,93,0.00,CLR,,0.00,0.0,WeatherDisplay:10.37,2013-09-28 01:42:00,
2013-09-28 02:47:00,52.5,50.5,29.87,ENE,78,3.5,3.5,93,0.00,CLR,,0.00,0.0,WeatherDisplay:10.37,2013-09-28 01:47:00,
2013-09-28 02:52:00,52.5,50.5,29.87,ENE,78,3.5,3.5,93,0.00,CLR,,0.00,0.0,WeatherDisplay:10.37,2013-09-28 01:52:00,
2013-09-28 02:57:00,52.4,50.4,29.86,ENE,78,3.5,3.5,93,0.00,CLR,,0.00,0.0,WeatherDisplay:10.37,2013-09-28 01:57:00,
2013-09-28 03:02:00,52.4,50.4,29.86,ENE,78,0.0,0.1,93,0.00,CLR,,0.00,0.0,WeatherDisplay:10.37,2013-09-28 02:02:00,
2013-09-28 03:07:00,52.4,50.7,29.86,ENE,78,2.0,2.0,94,0.00,CLR,,0.00,0.0,WeatherDisplay:10.37,2013-09-28 02:07:00,
2013-09-28 03:12:00,52.4,50.7,29.86,ENE,78,1.2,0.0,94,0.00,CLR,,0.00,0.0,WeatherDisplay:10.37,2013-09-28 02:12:00,
2013-09-28 03:17:00,52.4,50.7,29.86,ENE,78,2.3,2.3,94,0.00,CLR,,0.00,0.0,WeatherDisplay:10.37,2013-09-28 02:17:00,
2013-09-28 03:22:00,52.4,50.7,29.86,ENE,78,4.0,4.0,94,0.00,CLR,,0.00,0.0,WeatherDisplay:10.37,2013-09-28 02:22:00,
2013-09-28 03:27:00,52.4,50.7,29.85,ENE,78,3.5,3.5,94,0.00,CLR,,0.00,0.0,WeatherDisplay:10.37,2013-09-28 02:27:00,
2013-09-28 03:32:00,52.5,50.8,29.85,ENE,78,1.2,1.2,94,0.00,CLR,,0.00,0.0,WeatherDisplay:10.37,2013-09-28 02:32:00,
2013-09-28 03:37:00,52.5,50.8,29.85,ENE,78,3.5,3.5,94,0.00,CLR,,0.00,0.0,WeatherDisplay:10.37,2013-09-28 02:37:00,
2013-09-28 03:42:00,52.6,50.9,29.85,ENE,78,1.2,1.2,94,0.00,CLR,,0.00,0.0,WeatherDisplay:10.37,2013-09-28 02:42:00,
2013-09-28 03:47:00,52.7,51.0,29.85,ENE,77,3.5,3.5,94,0.00,CLR,,0.00,0.0,WeatherDisplay:10.37,2013-09-28 02:47:00,
2013-09-28 03:52:00,52.8,51.1,29.84,ENE,76,6.9,6.9,94,0.00,CLR,,0.00,0.0,WeatherDisplay:10.37,2013-09-28 02:52:00,
2013-09-28 03:57:00,52.9,51.2,29.84,ENE,76,3.5,3.5,94,0.00,CLR,,0.00,0.0,WeatherDisplay:10.37,2013-09-28 02:57:00,
2013-09-28 04:02:00,52.9,51.2,29.85,ENE,76,1.0,0.0,94,0.00,CLR,,0.00,0.0,WeatherDisplay:10.37,2013-09-28 03:02:00,
2013-09-28 04:07:00,52.9,51.2,29.85,ENE,76,2.3,2.3,94,0.00,CLR,,0.00,0.0,WeatherDisplay:10.37,2013-09-28 03:07:00,
2013-09-28 04:12:00,52.9,51.2,29.85,ENE,76,0.0,0.0,94,0.00,CLR,,0.00,0.0,WeatherDisplay:10.37,2013-09-28 03:12:00,
2013-09-28 04:17:00,52.9,51.2,29.85,ENE,76,3.5,3.5,94,0.00,CLR,,0.00,0.0,WeatherDisplay:10.37,2013-09-28 03:17:00,
2013-09-28 04:22:00,52.9,51.2,29.85,ENE,76,0.0,0.0,94,0.00,CLR,,0.00,0.0,WeatherDisplay:10.37,2013-09-28 03:22:00,
2013-09-28 04:27:00,52.9,51.2,29.85,ENE,76,0.0,0.0,94,0.00,CLR,,0.00,0.0,WeatherDisplay:10.37,2013-09-28 03:27:00,
2013-09-28 04:32:00,52.8,51.1,29.85,ENE,76,0.0,0.0,94,0.00,CLR,,0.00,0.0,WeatherDisplay:10.37,2013-09-28 03:32:00,
2013-09-28 04:37:00,52.7,51.0,29.85,ENE,76,0.0,0.0,94,0.00,CLR,,0.00,0.0,WeatherDisplay:10.37,2013-09-28 03:37:00,
2013-09-28 04:42:00,52.6,50.9,29.85,ENE,76,0.0,0.0,94,0.00,CLR,,0.00,0.0,WeatherDisplay:10.37,2013-09-28 03:42:00,
2013-09-28 04:47:00,52.5,50.8,29.85,ENE,76,0.0,0.0,94,0.00,CLR,,0.00,0.0,WeatherDisplay:10.37,2013-09-28 03:47:00,
2013-09-28 04:52:00,52.4,50.7,29.85,ENE,76,0.0,0.0,94,0.00,CLR,,0.00,0.0,WeatherDisplay:10.37,2013-09-28 03:52:00,
2013-09-28 04:57:00,52.3,50.6,29.85,ENE,76,0.0,0.0,94,0.00,CLR,,0.00,0.0,WeatherDisplay:10.37,2013-09-28 03:57:00,
2013-09-28 05:01:00,52.2,50.5,29.85,ENE,76,0.0,0.0,94,0.00,CLR,,0.00,0.0,WeatherDisplay:10.37,2013-09-28 04:01:00,
2013-09-28 05:06:00,52.1,50.4,29.85,ENE,76,0.0,0.0,94,0.00,CLR,,0.00,0.0,WeatherDisplay:10.37,2013-09-28 04:06:00,
2013-09-28 05:11:00,52.1,50.4,29.85,ENE,76,0.0,0.0,94,0.00,CLR,,0.00,0.0,WeatherDisplay:10.37,2013-09-28 04:11:00,
2013-09-28 05:16:00,52.0,50.3,29.85,ENE,76,0.0,0.0,94,0.00,CLR,,0.00,0.0,WeatherDisplay:10.37,2013-09-28 04:16:00,
2013-09-28 05:21:00,52.0,50.3,29.85,ENE,76,0.0,0.0,94,0.00,CLR,,0.00,0.0,WeatherDisplay:10.37,2013-09-28 04:21:00,
2013-09-28 05:26:00,52.0,50.3,29.85,ENE,76,0.0,0.0,94,0.00,CLR,,0.00,0.0,WeatherDisplay:10.37,2013-09-28 04:26:00,
2013-09-28 05:31:00,52.0,50.3,29.85,ENE,76,0.0,0.0,94,0.00,CLR,,0.00,0.0,WeatherDisplay:10.37,2013-09-28 04:31:00,
2013-09-28 05:36:00,52.0,50.3,29.85,ENE,76,0.0,0.0,94,0.00,CLR,,0.00,0.0,WeatherDisplay:10.37,2013-09-28 04:36:00,
2013-09-28 05:41:00,51.9,50.2,29.85,ENE,76,0.0,0.0,94,0.00,CLR,,0.00,0.0,WeatherDisplay:10.37,2013-09-28 04:41:00,
2013-09-28 05:46:00,51.9,50.2,29.85,ENE,76,0.0,0.0,94,0.00,CLR,,0.00,0.0,WeatherDisplay:10.37,2013-09-28 04:46:00,
2013-09-28 05:51:00,52.0,50.3,29.84,ENE,76,1.2,1.2,94,0.00,CLR,,0.00,0.0,WeatherDisplay:10.37,2013-09-28 04:51:00,
2013-09-28 05:56:00,52.2,50.8,29.84,ENE,76,2.3,2.3,95,0.00,CLR,,0.00,0.0,WeatherDisplay:10.37,2013-09-28 04:56:00,
2013-09-28 06:01:00,52.4,51.0,29.84,ENE,76,3.5,3.5,95,0.00,CLR,,0.00,0.0,WeatherDisplay:10.37,2013-09-28 05:01:00,
2013-09-28 06:06:00,52.6,51.2,29.84,ENE,76,1.2,1.2,95,0.00,CLR,,0.00,0.0,WeatherDisplay:10.37,2013-09-28 05:06:00,
2013-09-28 06:12:00,52.7,51.3,29.83,ENE,76,3.5,3.5,95,0.00,CLR,,0.00,0.0,WeatherDisplay:10.37,2013-09-28 05:12:00,
2013-09-28 06:17:00,52.8,51.4,29.84,ENE,76,0.0,0.0,95,0.00,CLR,,0.00,0.0,WeatherDisplay:10.37,2013-09-28 05:17:00,
2013-09-28 06:22:00,52.8,51.4,29.83,ENE,76,0.0,0.0,95,0.00,CLR,,0.00,0.0,WeatherDisplay:10.37,2013-09-28 05:22:00,
2013-09-28 06:27:00,52.9,51.5,29.83,ENE,76,3.5,3.5,95,0.00,CLR,,0.00,0.0,WeatherDisplay:10.37,2013-09-28 05:27:00,
2013-09-28 06:32:00,52.9,51.5,29.84,ENE,76,2.3,0.0,95,0.00,OVC,,0.00,0.0,WeatherDisplay:10.37,2013-09-28 05:32:00,
2013-09-28 06:37:00,53.0,51.6,29.83,ENE,76,3.0,3.0,95,0.00,OVC,,0.00,0.0,WeatherDisplay:10.37,2013-09-28 05:37:00,
2013-09-28 06:42:00,53.0,51.6,29.83,ENE,76,2.3,2.3,95,0.00,OVC,,0.00,0.0,WeatherDisplay:10.37,2013-09-28 05:42:00,
2013-09-28 06:47:00,53.1,51.7,29.83,ENE,76,3.5,3.5,95,0.00,OVC,,0.00,0.0,WeatherDisplay:10.37,2013-09-28 05:47:00,
2013-09-28 06:52:00,53.2,51.8,29.83,ENE,75,5.8,5.8,95,0.00,OVC,,0.00,0.0,WeatherDisplay:10.37,2013-09-28 05:52:00,
2013-09-28 06:57:00,53.3,51.9,29.83,ENE,76,3.5,3.5,95,0.00,OVC,,0.00,0.0,WeatherDisplay:10.37,2013-09-28 05:57:00,
2013-09-28 07:02:00,53.4,52.0,29.83,ENE,76,3.5,3.5,95,0.00,OVC,,0.00,0.0,WeatherDisplay:10.37,2013-09-28 06:02:00,
2013-09-28 07:07:00,53.5,52.1,29.83,ENE,73,4.6,4.6,95,0.00,OVC,,0.00,0.0,WeatherDisplay:10.37,2013-09-28 06:07:00,
2013-09-28 07:12:00,53.6,52.2,29.83,ENE,74,4.6,4.6,95,0.00,OVC,,0.00,5.0,WeatherDisplay:10.37,2013-09-28 06:12:00,
2013-09-28 07:17:00,53.7,52.3,29.83,ENE,76,5.8,5.8,95,0.00,BKN,,0.00,11.0,WeatherDisplay:10.37,2013-09-28 06:17:00,
2013-09-28 07:22:00,53.8,52.4,29.83,ENE,75,5.0,5.0,95,0.00,BKN,,0.00,16.0,WeatherDisplay:10.37,2013-09-28 06:22:00,
2013-09-28 07:27:00,53.9,52.5,29.83,ENE,75,5.0,5.0,95,0.00,BKN,,0.00,21.0,WeatherDisplay:10.37,2013-09-28 06:27:00,
2013-09-28 07:32:00,54.1,52.7,29.83,ENE,74,3.5,3.5,95,0.00,BKN,,0.00,26.0,WeatherDisplay:10.37,2013-09-28 06:32:00,
2013-09-28 07:37:00,54.2,52.8,29.83,ENE,69,4.6,4.6,95,0.00,BKN,,0.00,30.0,WeatherDisplay:10.37,2013-09-28 06:37:00,
2013-09-28 07:42:00,54.3,52.9,29.84,ENE,72,5.8,5.8,95,0.00,BKN,,0.00,35.0,WeatherDisplay:10.37,2013-09-28 06:42:00,
2013-09-28 07:47:00,54.5,53.1,29.84,ENE,71,3.5,3.5,95,0.00,BKN,,0.00,42.0,WeatherDisplay:10.37,2013-09-28 06:47:00,
2013-09-28 07:52:00,54.6,53.2,29.84,ENE,70,4.0,4.0,95,0.00,BKN,,0.00,46.0,WeatherDisplay:10.37,2013-09-28 06:52:00,
2013-09-28 07:57:00,54.7,53.3,29.84,ENE,70,3.0,3.0,95,0.00,BKN,,0.00,49.0,WeatherDisplay:10.37,2013-09-28 06:57:00,
2013-09-28 08:02:00,54.8,53.4,29.84,ENE,69,3.5,3.5,95,0.00,BKN,,0.00,60.0,WeatherDisplay:10.37,2013-09-28 07:02:00,
2013-09-28 08:07:00,55.0,53.6,29.84,ENE,70,2.3,0.0,95,0.00,BKN,,0.00,62.0,WeatherDisplay:10.37,2013-09-28 07:07:00,
2013-09-28 08:12:00,55.1,53.7,29.84,ENE,70,4.6,4.6,95,0.00,BKN,,0.00,60.0,WeatherDisplay:10.37,2013-09-28 07:12:00,
2013-09-28 08:17:00,55.2,53.5,29.84,ENE,70,3.5,3.5,94,0.00,BKN,,0.00,56.0,WeatherDisplay:10.37,2013-09-28 07:17:00,
2013-09-28 08:22:00,55.2,53.5,29.84,ENE,69,3.5,3.5,94,0.00,BKN,,0.00,58.0,WeatherDisplay:10.37,2013-09-28 07:22:00,
2013-09-28 08:27:00,55.3,53.6,29.84,ENE,71,8.1,8.1,94,0.00,BKN,,0.00,63.0,WeatherDisplay:10.37,2013-09-28 07:27:00,
2013-09-28 08:32:00,55.4,53.7,29.84,ENE,72,4.0,4.0,94,0.00,BKN,,0.00,69.0,WeatherDisplay:10.37,2013-09-28 07:32:00,
2013-09-28 08:37:00,55.6,53.9,29.84,ENE,71,3.5,3.5,94,0.00,BKN,,0.00,79.0,WeatherDisplay:10.37,2013-09-28 07:37:00,
2013-09-28 08:42:00,55.7,53.7,29.83,ENE,74,6.9,6.9,93,0.00,BKN,,0.00,98.0,WeatherDisplay:10.37,2013-09-28 07:42:00,
2013-09-28 08:47:00,55.9,53.9,29.83,ENE,74,4.6,4.6,93,0.00,BKN,,0.00,107.0,WeatherDisplay:10.37,2013-09-28 07:47:00,
2013-09-28 08:52:00,56.1,54.1,29.84,ENE,74,3.5,3.5,93,0.00,BKN,,0.00,111.0,WeatherDisplay:10.37,2013-09-28 07:52:00,
2013-09-28 08:57:00,56.3,54.3,29.83,ENE,74,7.0,7.0,93,0.00,BKN,,0.00,113.0,WeatherDisplay:10.37,2013-09-28 07:57:00,
2013-09-28 09:02:00,56.5,54.5,29.83,East,80,9.2,9.2,93,0.00,BKN,,0.00,118.0,WeatherDisplay:10.37,2013-09-28 08:02:00,
2013-09-28 09:07:00,56.7,54.4,29.83,East,80,9.2,9.2,92,0.00,BKN,,0.00,121.0,WeatherDisplay:10.37,2013-09-28 08:07:00,
2013-09-28 09:12:00,56.9,54.6,29.83,East,98,6.9,6.9,92,0.00,BKN,,0.00,121.0,WeatherDisplay:10.37,2013-09-28 08:12:00,
2013-09-28 09:17:00,57.1,54.5,29.83,ENE,67,11.5,11.5,91,0.00,BKN,,0.00,123.0,WeatherDisplay:10.37,2013-09-28 08:17:00,
2013-09-28 09:22:00,57.3,54.7,29.83,East,98,10.0,10.0,91,0.00,BKN,,0.00,146.0,WeatherDisplay:10.37,2013-09-28 08:22:00,
2013-09-28 09:27:00,57.5,54.6,29.83,East,82,11.5,11.5,90,0.00,BKN,,0.00,167.0,WeatherDisplay:10.37,2013-09-28 08:27:00,
2013-09-28 09:32:00,57.7,54.8,29.83,East,92,9.2,9.2,90,0.00,BKN,,0.00,174.0,WeatherDisplay:10.37,2013-09-28 08:32:00,
2013-09-28 09:37:00,57.9,55.0,29.83,ENE,61,9.2,9.2,90,0.00,BKN,,0.00,167.0,WeatherDisplay:10.37,2013-09-28 08:37:00,
2013-09-28 09:42:00,58.2,55.0,29.83,East,94,9.2,9.2,89,0.00,BKN,,0.00,183.0,WeatherDisplay:10.37,2013-09-28 08:42:00,
2013-09-28 09:47:00,58.5,55.3,29.82,ENE,76,9.2,9.2,89,0.00,BKN,,0.00,220.0,WeatherDisplay:10.37,2013-09-28 08:47:00,
2013-09-28 09:52:00,59.2,55.6,29.82,East,84,9.2,9.2,88,0.00,SCT,,0.00,411.0,WeatherDisplay:10.37,2013-09-28 08:52:00,
2013-09-28 09:57:00,59.8,55.9,29.82,East,84,9.2,9.2,87,0.00,SCT,,0.00,179.0,WeatherDisplay:10.37,2013-09-28 08:57:00,
2013-09-28 10:02:00,59.9,55.7,29.82,ENE,75,9.2,9.2,86,0.00,BKN,,0.00,185.0,WeatherDisplay:10.37,2013-09-28 09:02:00,
2013-09-28 10:07:00,60.0,55.5,29.82,East,80,9.2,9.2,85,0.00,BKN,,0.00,214.0,WeatherDisplay:10.37,2013-09-28 09:07:00,
2013-09-28 10:12:00,60.4,55.9,29.82,East,86,11.5,11.5,85,0.00,BKN,,0.00,213.0,WeatherDisplay:10.37,2013-09-28 09:12:00,
2013-09-28 10:17:00,60.5,55.6,29.82,East,87,5.8,5.8,84,0.00,BKN,,0.00,232.0,WeatherDisplay:10.37,2013-09-28 09:17:00,
2013-09-28 10:22:00,60.8,56.3,29.82,East,83,3.5,3.5,85,0.00,BKN,,0.00,216.0,WeatherDisplay:10.37,2013-09-28 09:22:00,
2013-09-28 10:27:00,61.0,56.1,29.82,East,95,9.2,9.2,84,0.00,BKN,,0.00,209.0,WeatherDisplay:10.37,2013-09-28 09:27:00,
2013-09-28 10:33:00,61.1,56.2,29.82,ENE,76,6.9,6.9,84,0.00,BKN,,0.00,190.0,WeatherDisplay:10.37,2013-09-28 09:33:00,
2013-09-28 10:38:00,61.2,56.0,29.82,ESE,107,12.7,12.7,83,0.00,BKN,,0.00,202.0,WeatherDisplay:10.37,2013-09-28 09:38:00,
2013-09-28 10:43:00,61.3,56.1,29.81,East,94,10.4,10.4,83,0.00,BKN,,0.00,181.0,WeatherDisplay:10.37,2013-09-28 09:43:00,
2013-09-28 10:48:00,61.3,56.1,29.82,ENE,74,9.0,9.0,83,0.00,BKN,,0.00,211.0,WeatherDisplay:10.37,2013-09-28 09:48:00,
2013-09-28 10:53:00,61.6,56.4,29.82,East,94,10.4,10.4,83,0.00,BKN,,0.00,211.0,WeatherDisplay:10.37,2013-09-28 09:53:00,
2013-09-28 10:58:00,61.7,56.5,29.82,ENE,63,13.8,13.8,83,0.00,BKN,,0.00,190.0,WeatherDisplay:10.37,2013-09-28 09:58:00,
2013-09-28 11:03:00,61.8,56.6,29.82,East,94,6.9,6.9,83,0.00,BKN,,0.00,176.0,WeatherDisplay:10.37,2013-09-28 10:03:00,
2013-09-28 11:08:00,61.9,56.7,29.82,ENE,71,6.9,6.9,83,0.00,BKN,,0.00,195.0,WeatherDisplay:10.37,2013-09-28 10:08:00,
2013-09-28 11:13:00,61.9,56.7,29.81,ENE,71,9.2,9.2,83,0.00,BKN,,0.00,225.0,WeatherDisplay:10.37,2013-09-28 10:13:00,
2013-09-28 11:18:00,62.0,56.4,29.81,ENE,71,8.1,8.1,82,0.00,BKN,,0.00,234.0,WeatherDisplay:10.37,2013-09-28 10:18:00,
2013-09-28 11:23:00,62.2,56.6,29.81,East,82,6.9,6.9,82,0.00,BKN,,0.00,237.0,WeatherDisplay:10.37,2013-09-28 10:23:00,
2013-09-28 11:28:00,62.4,56.8,29.81,ENE,67,6.9,6.9,82,0.00,BKN,,0.00,288.0,WeatherDisplay:10.37,2013-09-28 10:28:00,
2013-09-28 11:33:00,62.8,57.2,29.81,ENE,72,11.5,11.5,82,0.00,SCT,,0.00,360.0,WeatherDisplay:10.37,2013-09-28 10:33:00,
2013-09-28 11:38:00,63.6,57.7,29.81,East,94,11.5,11.5,81,0.00,FEW,,0.00,633.0,WeatherDisplay:10.37,2013-09-28 10:38:00,
2013-09-28 11:43:00,64.0,58.1,29.81,ENE,76,11.5,11.5,81,0.00,CLR,,0.00,380.0,WeatherDisplay:10.37,2013-09-28 10:43:00,
2013-09-28 11:48:00,64.1,57.8,29.81,East,98,10.4,10.4,80,0.00,FEW,,0.00,497.0,WeatherDisplay:10.37,2013-09-28 10:48:00,
2013-09-28 11:53:00,64.1,57.5,29.81,East,89,11.5,11.5,79,0.00,SCT,,0.00,316.0,WeatherDisplay:10.37,2013-09-28 10:53:00,
2013-09-28 11:58:00,64.3,58.0,29.81,ENE,69,9.2,9.2,80,0.00,SCT,,0.00,262.0,WeatherDisplay:10.37,2013-09-28 10:58:00,
2013-09-28 12:03:00,64.2,57.5,29.81,ENE,78,6.9,6.9,79,0.00,BKN,,0.00,258.0,WeatherDisplay:10.37,2013-09-28 11:03:00,
2013-09-28 12:08:00,64.3,57.6,29.81,East,99,10.0,10.0,79,0.00,BKN,,0.00,225.0,WeatherDisplay:10.37,2013-09-28 11:08:00,
2013-09-28 12:13:00,64.2,57.9,29.81,East,85,11.5,11.5,80,0.00,BKN,,0.00,211.0,WeatherDisplay:10.37,2013-09-28 11:13:00,
2013-09-28 12:18:00,64.2,57.5,29.81,East,84,11.5,11.5,79,0.00,BKN,,0.00,200.0,WeatherDisplay:10.37,2013-09-28 11:18:00,
2013-09-28 12:23:00,64.2,57.9,29.81,ENE,74,5.0,5.0,80,0.00,BKN,,0.00,200.0,WeatherDisplay:10.37,2013-09-28 11:23:00,
2013-09-28 12:28:00,64.3,58.0,29.81,East,98,7.0,7.0,80,0.00,BKN,,0.00,185.0,WeatherDisplay:10.37,2013-09-28 11:28:00,
2013-09-28 12:33:00,64.3,58.0,29.81,East,84,6.0,6.0,80,0.00,BKN,,0.00,162.0,WeatherDisplay:10.37,2013-09-28 11:33:00,
2013-09-28 12:38:00,64.3,57.6,29.81,ENE,72,11.5,11.5,79,0.00,BKN,,0.00,144.0,WeatherDisplay:10.37,2013-09-28 11:38:00,
2013-09-28 12:43:00,64.2,57.5,29.81,ESE,109,4.6,4.6,79,0.00,BKN,,0.00,132.0,WeatherDisplay:10.37,2013-09-28 11:43:00,
2013-09-28 12:48:00,64.2,57.9,29.81,ESE,109,1.2,1.2,80,0.00,BKN,,0.00,134.0,WeatherDisplay:10.37,2013-09-28 11:48:00,
2013-09-28 12:53:00,64.2,57.9,29.81,ESE,118,9.2,9.2,80,0.00,BKN,,0.00,132.0,WeatherDisplay:10.37,2013-09-28 11:53:00,
2013-09-28 12:58:00,64.0,57.7,29.81,East,92,9.2,9.2,80,0.00,BKN,,0.00,135.0,WeatherDisplay:10.37,2013-09-28 11:58:00,
2013-09-28 13:03:00,64.0,57.7,29.81,East,91,6.9,6.9,80,0.00,BKN,,0.00,130.0,WeatherDisplay:10.37,2013-09-28 12:03:00,
2013-09-28 13:08:00,64.0,57.7,29.81,East,86,4.6,4.6,80,0.00,BKN,,0.00,125.0,WeatherDisplay:10.37,2013-09-28 12:08:00,
2013-09-28 13:13:00,63.9,57.6,29.81,East,94,3.5,3.5,80,0.00,BKN,,0.00,127.0,WeatherDisplay:10.37,2013-09-28 12:13:00,
2013-09-28 13:18:00,64.0,57.4,29.81,East,90,6.9,6.9,79,0.00,BKN,,0.00,127.0,WeatherDisplay:10.37,2013-09-28 12:18:00,
2013-09-28 13:23:00,64.0,57.4,29.81,East,82,6.0,6.0,79,0.00,BKN,,0.00,120.0,WeatherDisplay:10.37,2013-09-28 12:23:00,
2013-09-28 13:28:00,64.0,57.4,29.80,ENE,75,4.6,4.6,79,0.00,BKN,,0.00,127.0,WeatherDisplay:10.37,2013-09-28 12:28:00,
2013-09-28 13:33:00,64.0,57.4,29.80,East,94,9.2,9.2,79,0.00,BKN,,0.00,151.0,WeatherDisplay:10.37,2013-09-28 12:33:00,
2013-09-28 13:38:00,64.0,56.6,29.80,East,94,5.8,5.8,77,0.00,BKN,,0.00,179.0,WeatherDisplay:10.37,2013-09-28 12:38:00,
2013-09-28 13:43:00,64.1,56.7,29.80,East,100,9.0,9.0,77,0.00,BKN,,0.00,192.0,WeatherDisplay:10.37,2013-09-28 12:43:00,
2013-09-28 13:48:00,64.1,56.7,29.80,East,90,10.4,10.4,77,0.00,BKN,,0.00,202.0,WeatherDisplay:10.37,2013-09-28 12:48:00,
2013-09-28 13:53:00,64.2,56.8,29.80,East,92,10.4,10.4,77,0.00,BKN,,0.00,218.0,WeatherDisplay:10.37,2013-09-28 12:53:00,
2013-09-28 13:58:00,64.2,56.8,29.80,NE,48,7.0,7.0,77,0.00,BKN,,0.00,236.0,WeatherDisplay:10.37,2013-09-28 12:58:00,
2013-09-28 14:03:00,64.2,56.5,29.79,East,90,9.2,9.2,76,0.00,BKN,,0.00,221.0,WeatherDisplay:10.37,2013-09-28 13:03:00,
2013-09-28 14:08:00,64.2,56.5,29.79,East,80,11.5,11.5,76,0.00,BKN,,0.00,216.0,WeatherDisplay:10.37,2013-09-28 13:08:00,
2013-09-28 14:13:00,64.3,56.9,29.80,ENE,76,10.4,10.4,77,0.00,BKN,,0.00,213.0,WeatherDisplay:10.37,2013-09-28 13:13:00,
2013-09-28 14:18:00,64.2,56.5,29.80,ENE,78,6.9,6.9,76,0.00,BKN,,0.00,199.0,WeatherDisplay:10.37,2013-09-28 13:18:00,
2013-09-28 14:23:00,64.1,56.7,29.79,ENE,77,6.9,6.9,77,0.00,BKN,,0.00,195.0,WeatherDisplay:10.37,2013-09-28 13:23:00,
2013-09-28 14:28:00,63.9,56.2,29.79,ENE,69,10.0,10.0,76,0.00,BKN,,0.00,188.0,WeatherDisplay:10.37,2013-09-28 13:28:00,
2013-09-28 14:33:00,63.8,56.1,29.79,East,81,10.4,10.4,76,0.00,BKN,,0.00,172.0,WeatherDisplay:10.37,2013-09-28 13:33:00,
2013-09-28 14:38:00,63.7,56.0,29.79,East,88,11.5,11.5,76,0.00,BKN,,0.00,151.0,WeatherDisplay:10.37,2013-09-28 13:38:00,
2013-09-28 14:43:00,63.5,55.8,29.79,ESE,117,11.5,11.5,76,0.00,BKN,,0.00,134.0,WeatherDisplay:10.37,2013-09-28 13:43:00,
2013-09-28 14:48:00,63.4,56.1,29.80,ESE,115,10.4,10.4,77,0.00,BKN,,0.00,120.0,WeatherDisplay:10.37,2013-09-28 13:48:00,
2013-09-28 14:53:00,63.2,55.9,29.80,NNE,25,13.8,13.8,77,0.00,BKN,,0.00,113.0,WeatherDisplay:10.37,2013-09-28 13:53:00,
2013-09-28 14:58:00,63.1,55.8,29.80,East,99,10.4,10.4,77,0.00,BKN,,0.00,113.0,WeatherDisplay:10.37,2013-09-28 13:58:00,
2013-09-28 15:03:00,63.0,56.0,29.79,ENE,74,8.1,8.1,78,0.00,BKN,,0.00,135.0,WeatherDisplay:10.37,2013-09-28 14:03:00,
2013-09-28 15:08:00,63.0,56.0,29.79,East,83,9.2,9.2,78,0.00,BKN,,0.00,146.0,WeatherDisplay:10.37,2013-09-28 14:08:00,
2013-09-28 15:13:00,62.9,55.9,29.79,ESE,103,13.8,13.8,78,0.00,BKN,,0.00,120.0,WeatherDisplay:10.37,2013-09-28 14:13:00,
2013-09-28 15:18:00,62.8,55.8,29.79,East,84,9.0,9.0,78,0.00,BKN,,0.00,107.0,WeatherDisplay:10.37,2013-09-28 14:18:00,
2013-09-28 15:23:00,62.7,56.1,29.78,ENE,68,11.5,11.5,79,0.00,BKN,,0.00,100.0,WeatherDisplay:10.37,2013-09-28 14:23:00,
2013-09-28 15:28:00,62.6,56.0,29.78,East,94,5.8,5.8,79,0.00,BKN,,0.00,95.0,WeatherDisplay:10.37,2013-09-28 14:28:00,
2013-09-28 15:33:00,62.5,55.5,29.78,East,80,10.4,10.4,78,0.00,BKN,,0.00,93.0,WeatherDisplay:10.37,2013-09-28 14:33:00,
2013-09-28 15:38:00,62.4,55.4,29.78,East,80,11.5,11.5,78,0.00,BKN,,0.00,90.0,WeatherDisplay:10.37,2013-09-28 14:38:00,
2013-09-28 15:43:00,62.3,55.4,29.78,East,96,8.1,8.1,78,0.00,BKN,,0.00,81.0,WeatherDisplay:10.37,2013-09-28 14:43:00,
2013-09-28 15:48:00,62.3,55.0,29.78,ENE,71,8.1,8.1,77,0.00,BKN,,0.00,84.0,WeatherDisplay:10.37,2013-09-28 14:48:00,
2013-09-28 15:53:00,62.2,54.9,29.78,ENE,69,5.0,5.0,77,0.00,BKN,,0.00,79.0,WeatherDisplay:10.37,2013-09-28 14:53:00,
2013-09-28 15:58:00,62.2,54.9,29.78,ESE,105,6.9,6.9,77,0.00,BKN,,0.00,104.0,WeatherDisplay:10.37,2013-09-28 14:58:00,
2013-09-28 16:03:00,62.2,54.5,29.78,ENE,72,4.6,4.6,76,0.00,BKN,,0.00,86.0,WeatherDisplay:10.37,2013-09-28 15:03:00,
2013-09-28 16:08:00,62.2,54.5,29.78,ESE,104,10.4,10.4,76,0.00,BKN,,0.00,102.0,WeatherDisplay:10.37,2013-09-28 15:08:00,
2013-09-28 16:13:00,62.2,53.8,29.77,East,82,9.2,9.2,74,0.00,BKN,,0.00,105.0,WeatherDisplay:10.37,2013-09-28 15:13:00,
2013-09-28 16:18:00,62.0,52.1,29.77,ESE,119,15.0,15.0,70,0.00,BKN,,0.00,102.0,WeatherDisplay:10.37,2013-09-28 15:18:00,
2013-09-28 16:23:00,61.9,51.2,29.77,East,86,12.7,12.7,68,0.00,SCT,,0.00,111.0,WeatherDisplay:10.37,2013-09-28 15:23:00,
2013-09-28 16:28:00,62.0,50.9,29.77,SE,134,12.7,12.7,67,0.00,SCT,,0.00,114.0,WeatherDisplay:10.37,2013-09-28 15:28:00,
2013-09-28 16:33:00,62.0,50.9,29.76,ENE,57,11.5,11.5,67,0.00,SCT,,0.00,114.0,WeatherDisplay:10.37,2013-09-28 15:33:00,
2013-09-28 16:38:00,62.0,51.3,29.76,East,87,7.0,7.0,68,0.00,SCT,,0.00,104.0,WeatherDisplay:10.37,2013-09-28 15:38:00,
2013-09-28 16:43:00,61.9,51.6,29.76,SE,130,6.9,6.9,69,0.00,SCT,,0.00,100.0,WeatherDisplay:10.37,2013-09-28 15:43:00,
2013-09-28 16:48:00,61.9,52.0,29.76,East,99,7.0,7.0,70,0.00,SCT,,0.00,104.0,WeatherDisplay:10.37,2013-09-28 15:48:00,
2013-09-28 16:54:00,61.9,52.0,29.76,East,92,7.0,7.0,70,0.00,FEW,,0.00,121.0,WeatherDisplay:10.37,2013-09-28 15:54:00,
2013-09-28 16:59:00,62.0,52.1,29.76,ENE,73,10.4,10.4,70,0.00,CLR,,0.00,158.0,WeatherDisplay:10.37,2013-09-28 15:59:00,
2013-09-28 17:04:00,62.5,52.6,29.76,ENE,60,11.5,11.5,70,0.00,CLR,,0.00,153.0,WeatherDisplay:10.37,2013-09-28 16:04:00,
2013-09-28 17:09:00,62.8,52.1,29.76,East,88,11.5,11.5,68,0.00,CLR,,0.00,206.0,WeatherDisplay:10.37,2013-09-28 16:09:00,
2013-09-28 17:14:00,62.7,51.6,29.76,ENE,70,11.5,11.5,67,0.00,CLR,,0.00,178.0,WeatherDisplay:10.37,2013-09-28 16:14:00,
2013-09-28 17:19:00,62.8,51.7,29.76,East,87,5.8,5.8,67,0.00,CLR,,0.00,190.0,WeatherDisplay:10.37,2013-09-28 16:19:00,
2013-09-28 17:24:00,62.9,51.4,29.76,East,92,9.2,9.2,66,0.00,CLR,,0.00,172.0,WeatherDisplay:10.37,2013-09-28 16:24:00,
2013-09-28 17:29:00,62.9,51.4,29.76,East,86,6.9,6.9,66,0.00,CLR,,0.00,156.0,WeatherDisplay:10.37,2013-09-28 16:29:00,
2013-09-28 17:34:00,62.9,51.0,29.76,East,85,13.8,13.8,65,0.00,CLR,,0.00,148.0,WeatherDisplay:10.37,2013-09-28 16:34:00,
2013-09-28 17:39:00,62.5,50.2,29.76,SE,126,9.0,9.0,64,0.00,CLR,,0.00,81.0,WeatherDisplay:10.37,2013-09-28 16:39:00,
2013-09-28 17:44:00,62.1,50.2,29.76,ENE,65,8.0,8.0,65,0.00,CLR,,0.00,58.0,WeatherDisplay:10.37,2013-09-28 16:44:00,
2013-09-28 17:49:00,61.6,49.3,29.76,East,88,11.5,11.5,64,0.00,CLR,,0.00,46.0,WeatherDisplay:10.37,2013-09-28 16:49:00,
2013-09-28 17:54:00,61.2,49.3,29.76,East,90,9.2,9.2,65,0.00,CLR,,0.00,37.0,WeatherDisplay:10.37,2013-09-28 16:54:00,
2013-09-28 17:59:00,60.9,49.1,29.76,East,87,11.5,11.5,65,0.00,OVC,,0.00,30.0,WeatherDisplay:10.37,2013-09-28 16:59:00,
2013-09-28 18:04:00,60.5,49.1,29.76,East,95,10.4,10.4,66,0.00,OVC,,0.00,25.0,WeatherDisplay:10.37,2013-09-28 17:04:00,
2013-09-28 18:09:00,60.3,48.9,29.76,ESE,103,11.5,11.5,66,0.00,OVC,,0.00,19.0,WeatherDisplay:10.37,2013-09-28 17:09:00,
2013-09-28 18:14:00,60.0,49.0,29.76,ENE,76,9.2,9.2,67,0.00,OVC,,0.00,16.0,WeatherDisplay:10.37,2013-09-28 17:14:00,
2013-09-28 18:19:00,59.7,49.1,29.76,ENE,60,11.5,11.5,68,0.00,OVC,,0.00,14.0,WeatherDisplay:10.37,2013-09-28 17:19:00,
2013-09-28 18:24:00,59.5,49.3,29.76,NE,48,8.1,8.1,69,0.00,OVC,,0.00,12.0,WeatherDisplay:10.37,2013-09-28 17:24:00,
2013-09-28 18:29:00,59.3,49.5,29.76,East,84,10.4,10.4,70,0.00,OVC,,0.00,11.0,WeatherDisplay:10.37,2013-09-28 17:29:00,
2013-09-28 18:34:00,59.1,49.7,29.76,East,99,11.5,11.5,71,0.00,OVC,,0.00,9.0,WeatherDisplay:10.37,2013-09-28 17:34:00,
2013-09-28 18:39:00,59.0,50.0,29.76,East,91,11.5,11.5,72,0.00,OVC,,0.00,7.0,WeatherDisplay:10.37,2013-09-28 17:39:00,
2013-09-28 18:44:00,59.0,50.0,29.76,NE,55,11.5,11.5,72,0.00,OVC,,0.00,0.0,WeatherDisplay:10.37,2013-09-28 17:44:00,
2013-09-28 18:49:00,58.8,50.2,29.76,ENE,69,11.0,11.0,73,0.00,OVC,,0.00,0.0,WeatherDisplay:10.37,2013-09-28 17:49:00,
2013-09-28 18:54:00,58.7,50.4,29.77,ESE,105,11.5,11.5,74,0.00,OVC,,0.00,0.0,WeatherDisplay:10.37,2013-09-28 17:54:00,
2013-09-28 18:59:00,58.7,50.4,29.77,ENE,78,17.3,17.3,74,0.00,OVC,,0.00,0.0,WeatherDisplay:10.37,2013-09-28 17:59:00,
2013-09-28 19:04:00,58.6,50.3,29.77,ENE,63,11.5,11.5,74,0.00,CLR,,0.00,0.0,WeatherDisplay:10.37,2013-09-28 18:04:00,
2013-09-28 19:09:00,58.6,50.7,29.77,East,86,9.2,9.2,75,0.00,CLR,,0.00,0.0,WeatherDisplay:10.37,2013-09-28 18:09:00,
2013-09-28 19:14:00,58.5,50.6,29.77,East,84,6.0,6.0,75,0.00,CLR,,0.00,0.0,WeatherDisplay:10.37,2013-09-28 18:14:00,
2013-09-28 19:19:00,58.4,50.5,29.77,ENE,78,9.2,9.2,75,0.00,CLR,,0.00,0.0,WeatherDisplay:10.37,2013-09-28 18:19:00,
2013-09-28 19:24:00,58.3,50.8,29.77,East,98,12.7,12.7,76,0.00,CLR,,0.00,0.0,WeatherDisplay:10.37,2013-09-28 18:24:00,
2013-09-28 19:29:00,58.3,50.8,29.77,East,96,8.1,8.1,76,0.00,CLR,,0.00,0.0,WeatherDisplay:10.37,2013-09-28 18:29:00,
2013-09-28 19:34:00,58.2,50.7,29.77,East,87,11.5,11.5,76,0.00,CLR,,0.00,0.0,WeatherDisplay:10.37,2013-09-28 18:34:00,
2013-09-28 19:39:00,58.2,50.7,29.77,East,101,7.0,7.0,76,0.00,CLR,,0.00,0.0,WeatherDisplay:10.37,2013-09-28 18:39:00,
2013-09-28 19:44:00,58.2,50.7,29.77,East,82,9.2,9.2,76,0.00,CLR,,0.00,0.0,WeatherDisplay:10.37,2013-09-28 18:44:00,
2013-09-28 19:49:00,58.1,50.9,29.77,East,82,11.5,11.5,77,0.00,CLR,,0.00,0.0,WeatherDisplay:10.37,2013-09-28 18:49:00,
2013-09-28 19:54:00,58.1,50.9,29.77,ENE,62,11.0,11.0,77,0.00,CLR,,0.00,0.0,WeatherDisplay:10.37,2013-09-28 18:54:00,
2013-09-28 19:59:00,58.1,50.9,29.77,East,88,11.5,11.5,77,0.00,CLR,,0.00,0.0,WeatherDisplay:10.37,2013-09-28 18:59:00,
2013-09-28 20:04:00,58.1,50.9,29.78,ENE,78,6.9,6.9,77,0.00,CLR,,0.00,0.0,WeatherDisplay:10.37,2013-09-28 19:04:00,
2013-09-28 20:09:00,58.1,50.9,29.77,ENE,69,10.0,10.0,77,0.00,CLR,,0.00,0.0,WeatherDisplay:10.37,2013-09-28 19:09:00,
2013-09-28 20:14:00,58.2,51.4,29.77,East,91,5.8,5.8,78,0.00,CLR,,0.00,0.0,WeatherDisplay:10.37,2013-09-28 19:14:00,
2013-09-28 20:19:00,58.1,51.3,29.77,ENE,75,10.4,10.4,78,0.00,CLR,,0.00,0.0,WeatherDisplay:10.37,2013-09-28 19:19:00,
2013-09-28 20:24:00,58.2,51.4,29.77,ESE,104,12.7,12.7,78,0.00,CLR,,0.00,0.0,WeatherDisplay:10.37,2013-09-28 19:24:00,
2013-09-28 20:29:00,58.2,51.4,29.77,ENE,67,11.5,11.5,78,0.00,CLR,,0.00,0.0,WeatherDisplay:10.37,2013-09-28 19:29:00,
2013-09-28 20:34:00,58.2,51.7,29.77,East,86,11.5,11.5,79,0.00,CLR,,0.00,0.0,WeatherDisplay:10.37,2013-09-28 19:34:00,
2013-09-28 20:39:00,58.3,51.8,29.77,ENE,66,9.2,9.2,79,0.00,CLR,,0.00,0.0,WeatherDisplay:10.37,2013-09-28 19:39:00,
2013-09-28 20:44:00,58.4,51.9,29.78,East,94,11.5,11.5,79,0.00,CLR,,0.00,0.0,WeatherDisplay:10.37,2013-09-28 19:44:00,
2013-09-28 20:49:00,58.4,51.9,29.78,East,90,10.4,10.4,79,0.00,CLR,,0.00,0.0,WeatherDisplay:10.37,2013-09-28 19:49:00,
2013-09-28 20:54:00,58.5,52.0,29.78,East,96,10.4,10.4,79,0.00,CLR,,0.00,0.0,WeatherDisplay:10.37,2013-09-28 19:54:00,
2013-09-28 20:59:00,58.6,52.1,29.78,ENE,74,6.9,6.9,79,0.00,CLR,,0.00,0.0,WeatherDisplay:10.37,2013-09-28 19:59:00,
2013-09-28 21:04:00,58.6,52.1,29.78,ESE,108,11.5,11.5,79,0.00,CLR,,0.00,0.0,WeatherDisplay:10.37,2013-09-28 20:04:00,
2013-09-28 21:09:00,58.6,52.1,29.79,ENE,69,11.5,11.5,79,0.00,CLR,,0.00,0.0,WeatherDisplay:10.37,2013-09-28 20:09:00,
2013-09-28 21:14:00,58.7,52.2,29.78,ENE,68,6.9,6.9,79,0.00,CLR,,0.00,0.0,WeatherDisplay:10.37,2013-09-28 20:14:00,
2013-09-28 21:18:00,58.6,52.1,29.79,East,90,11.5,11.5,79,0.00,CLR,,0.00,0.0,WeatherDisplay:10.37,2013-09-28 20:18:00,
2013-09-28 21:24:00,58.6,52.4,29.79,East,92,6.9,6.9,80,0.00,CLR,,0.00,0.0,WeatherDisplay:10.37,2013-09-28 20:24:00,
2013-09-28 21:29:00,58.6,52.4,29.78,East,94,5.8,5.8,80,0.00,CLR,,0.00,0.0,WeatherDisplay:10.37,2013-09-28 20:29:00,
2013-09-28 21:34:00,58.5,52.4,29.78,East,80,6.0,6.0,80,0.00,CLR,,0.00,0.0,WeatherDisplay:10.37,2013-09-28 20:34:00,
2013-09-28 21:39:00,58.5,52.4,29.78,East,94,15.0,15.0,80,0.00,CLR,,0.00,0.0,WeatherDisplay:10.37,2013-09-28 20:39:00,
2013-09-28 21:44:00,58.5,52.4,29.78,ENE,71,11.5,11.5,80,0.00,CLR,,0.00,0.0,WeatherDisplay:10.37,2013-09-28 20:44:00,
2013-09-28 21:49:00,58.5,52.4,29.78,East,79,5.8,5.8,80,0.00,CLR,,0.00,0.0,WeatherDisplay:10.37,2013-09-28 20:49:00,
2013-09-28 21:54:00,58.5,52.4,29.78,East,90,11.5,11.5,80,0.00,CLR,,0.00,0.0,WeatherDisplay:10.37,2013-09-28 20:54:00,
2013-09-28 21:59:00,58.6,52.4,29.78,East,90,9.2,9.2,80,0.00,CLR,,0.00,0.0,WeatherDisplay:10.37,2013-09-28 20:59:00,
2013-09-28 22:04:00,58.5,52.7,29.78,ESE,103,10.4,10.4,81,0.00,CLR,,0.00,0.0,WeatherDisplay:10.37,2013-09-28 21:04:00,
2013-09-28 22:09:00,58.6,52.4,29.77,ENE,69,11.5,11.5,80,0.00,CLR,,0.00,0.0,WeatherDisplay:10.37,2013-09-28 21:09:00,
2013-09-28 22:14:00,58.6,52.4,29.77,East,91,8.1,8.1,80,0.00,CLR,,0.00,0.0,WeatherDisplay:10.37,2013-09-28 21:14:00,
2013-09-28 22:19:00,58.6,52.8,29.77,East,88,5.8,5.8,81,0.00,CLR,,0.00,0.0,WeatherDisplay:10.37,2013-09-28 21:19:00,
2013-09-28 22:24:00,58.7,52.9,29.77,East,95,11.5,11.5,81,0.00,CLR,,0.00,0.0,WeatherDisplay:10.37,2013-09-28 21:24:00,
2013-09-28 22:29:00,58.7,52.5,29.77,ENE,74,12.7,12.7,80,0.00,CLR,,0.00,0.0,WeatherDisplay:10.37,2013-09-28 21:29:00,
2013-09-28 22:34:00,58.8,52.6,29.77,East,90,7.0,7.0,80,0.00,CLR,,0.00,0.0,WeatherDisplay:10.37,2013-09-28 21:34:00,
2013-09-28 22:39:00,58.8,52.6,29.76,East,82,5.8,5.8,80,0.00,CLR,,0.00,0.0,WeatherDisplay:10.37,2013-09-28 21:39:00,
2013-09-28 22:44:00,58.8,52.6,29.76,East,92,5.8,5.8,80,0.00,CLR,,0.00,0.0,WeatherDisplay:10.37,2013-09-28 21:44:00,
2013-09-28 22:49:00,58.9,52.7,29.76,ENE,78,4.6,4.6,80,0.00,CLR,,0.00,0.0,WeatherDisplay:10.37,2013-09-28 21:49:00,
2013-09-28 22:54:00,58.9,52.7,29.76,East,87,3.5,3.5,80,0.00,CLR,,0.00,0.0,WeatherDisplay:10.37,2013-09-28 21:54:00,
2013-09-28 22:59:00,58.9,52.7,29.76,ENE,68,5.8,5.8,80,0.00,CLR,,0.00,0.0,WeatherDisplay:10.37,2013-09-28 21:59:00,
2013-09-28 23:04:00,58.9,52.7,29.75,NE,48,11.5,11.5,80,0.00,CLR,,0.00,0.0,WeatherDisplay:10.37,2013-09-28 22:04:00,
2013-09-28 23:09:00,58.9,52.7,29.75,East,90,17.3,17.3,80,0.00,CLR,,0.00,0.0,WeatherDisplay:10.37,2013-09-28 22:09:00,
2013-09-28 23:14:00,58.9,52.7,29.75,ESE,103,10.4,10.4,80,0.00,CLR,,0.00,0.0,WeatherDisplay:10.37,2013-09-28 22:14:00,
2013-09-28 23:19:00,58.9,52.7,29.75,NNE,31,11.5,11.5,80,0.00,CLR,,0.00,0.0,WeatherDisplay:10.37,2013-09-28 22:19:00,
2013-09-28 23:24:00,58.9,52.4,29.75,East,81,6.9,6.9,79,0.00,CLR,,0.00,0.0,WeatherDisplay:10.37,2013-09-28 22:24:00,
2013-09-28 23:29:00,58.9,52.4,29.75,East,100,7.0,7.0,79,0.00,CLR,,0.00,0.0,WeatherDisplay:10.37,2013-09-28 22:29:00,
2013-09-28 23:34:00,58.9,52.4,29.75,ENE,75,6.9,6.9,79,0.00,CLR,,0.00,0.0,WeatherDisplay:10.37,2013-09-28 22:34:00,
2013-09-28 23:39:00,58.9,52.4,29.75,East,83,6.0,6.0,79,0.00,CLR,,0.00,0.0,WeatherDisplay:10.37,2013-09-28 22:39:00,
2013-09-28 23:44:00,58.8,52.6,29.74,ENE,78,6.9,6.9,80,0.00,CLR,,0.00,0.0,WeatherDisplay:10.37,2013-09-28 22:44:00,
2013-09-28 23:49:00,58.7,52.5,29.74,ENE,76,6.9,6.9,80,0.00,CLR,,0.00,0.0,WeatherDisplay:10.37,2013-09-28 22:49:00,
2013-09-28 23:54:00,58.6,52.8,29.75,ENE,76,6.0,6.0,81,0.00,CLR,,0.00,0.0,WeatherDisplay:10.37,2013-09-28 22:54:00,
2013-09-28 23:59:00,58.4,52.9,29.75,East,96,9.2,9.2,82,0.00,CLR,,0.00,0.0,WeatherDisplay:10.37,2013-09-28 22:59:00,